createdAt,value
2022-11-26T00:02:22.240Z,5.20
2022-11-26T00:04:50.355Z,5.20
2022-11-26T00:07:22.281Z,5.10
2022-11-26T00:09:50.287Z,5.10
2022-11-26T00:12:20.705Z,5.10
2022-11-26T00:14:48.541Z,5.10
2022-11-26T00:17:16.561Z,5.10
2022-11-26T00:19:45.034Z,5.20
2022-11-26T00:22:33.469Z,5.10
2022-11-26T00:25:00.930Z,5.10
2022-11-26T00:27:28.588Z,5.10
2022-11-26T00:29:56.252Z,5.10
2022-11-26T00:32:26.168Z,5.00
2022-11-26T00:34:54.113Z,5.10
2022-11-26T00:37:25.862Z,5.10
2022-11-26T00:39:53.711Z,5.10
2022-11-26T00:42:21.162Z,5.10
2022-11-26T00:44:48.487Z,5.10
2022-11-26T00:47:15.802Z,5.10
2022-11-26T00:49:43.127Z,5.10
2022-11-26T00:52:32.323Z,5.10
2022-11-26T00:55:36.822Z,5.20
2022-11-26T00:58:06.155Z,5.20
2022-11-26T01:00:35.467Z,5.20
2022-11-26T01:03:03.035Z,5.30
2022-11-26T01:05:33.332Z,5.30
2022-11-26T01:08:19.590Z,5.30
2022-11-26T01:10:46.933Z,5.20
2022-11-26T01:13:14.327Z,5.30
2022-11-26T01:15:41.723Z,5.30
2022-11-26T01:18:14.788Z,5.30
2022-11-26T01:20:43.010Z,5.30
2022-11-26T01:23:13.323Z,5.20
2022-11-26T01:25:41.563Z,5.20
2022-11-26T01:28:14.740Z,5.20
2022-11-26T01:30:42.723Z,5.30
2022-11-26T01:33:10.588Z,5.30
2022-11-26T01:35:38.178Z,5.30
2022-11-26T01:38:05.562Z,5.30
2022-11-26T01:40:54.670Z,5.30
2022-11-26T01:43:49.185Z,5.30
2022-11-26T01:46:19.008Z,5.30
2022-11-26T01:48:48.741Z,5.30
2022-11-26T01:51:22.056Z,5.20
2022-11-26T01:53:59.994Z,5.30
2022-11-26T01:56:40.840Z,5.20
2022-11-26T01:59:22.894Z,5.20
2022-11-26T02:01:52.388Z,5.20
2022-11-26T02:04:24.488Z,5.20
2022-11-26T02:06:53.273Z,5.20
2022-11-26T02:09:20.733Z,5.20
2022-11-26T02:11:48.384Z,5.10
2022-11-26T02:14:28.785Z,5.10
2022-11-26T02:17:14.558Z,5.10
2022-11-26T02:20:18.767Z,5.10
2022-11-26T02:23:19.805Z,5.10
2022-11-26T02:26:05.077Z,5.10
2022-11-26T02:28:50.702Z,5.10
2022-11-26T02:31:29.315Z,5.10
2022-11-26T02:34:12.187Z,5.00
2022-11-26T02:37:00.085Z,5.00
2022-11-26T02:39:29.386Z,5.00
2022-11-26T02:42:00.179Z,4.90
2022-11-26T02:44:38.130Z,4.90
2022-11-26T02:47:10.999Z,4.90
2022-11-26T02:49:40.755Z,4.90
2022-11-26T02:52:11.373Z,4.90
2022-11-26T02:54:40.450Z,4.80
2022-11-26T02:57:12.850Z,4.90
2022-11-26T02:59:40.906Z,4.80
2022-11-26T03:02:14.854Z,4.90
2022-11-26T03:04:47.064Z,4.80
2022-11-26T03:07:15.048Z,4.80
2022-11-26T03:09:59.653Z,4.90
2022-11-26T03:12:28.350Z,4.80
2022-11-26T03:14:55.770Z,4.80
2022-11-26T03:17:23.130Z,4.80
2022-11-26T03:19:50.517Z,4.80
2022-11-26T03:22:17.852Z,4.80
2022-11-26T03:24:45.273Z,4.80
2022-11-26T03:27:12.588Z,4.70
2022-11-26T03:29:39.900Z,4.70
2022-11-26T03:32:07.353Z,4.70
2022-11-26T03:34:34.747Z,4.70
2022-11-26T03:37:02.079Z,4.70
2022-11-26T03:39:29.422Z,4.70
2022-11-26T03:41:56.755Z,4.70
2022-11-26T03:44:24.121Z,4.60
2022-11-26T03:46:51.427Z,4.70
2022-11-26T03:49:18.835Z,4.70
2022-11-26T03:51:46.183Z,4.70
2022-11-26T03:54:13.671Z,4.70
2022-11-26T03:56:40.997Z,4.70
2022-11-26T03:59:08.299Z,4.70
2022-11-26T04:01:35.768Z,4.70
2022-11-26T04:04:03.284Z,4.70
2022-11-26T04:06:30.672Z,4.70
2022-11-26T04:08:57.988Z,4.70
2022-11-26T04:11:25.375Z,4.70
2022-11-26T04:13:52.712Z,4.60
2022-11-26T04:16:20.777Z,4.60
2022-11-26T04:18:48.353Z,4.60
2022-11-26T04:21:15.653Z,4.60
2022-11-26T04:23:43.052Z,4.60
2022-11-26T04:26:14.153Z,4.60
2022-11-26T04:28:41.529Z,4.60
2022-11-26T04:31:08.841Z,4.60
2022-11-26T04:33:36.309Z,4.60
2022-11-26T04:36:04.118Z,4.70
2022-11-26T04:38:31.437Z,4.70
2022-11-26T04:40:59.209Z,4.70
2022-11-26T04:43:26.570Z,4.70
2022-11-26T04:45:53.987Z,4.80
2022-11-26T04:48:21.786Z,4.80
2022-11-26T04:50:50.237Z,4.80
2022-11-26T04:53:21.717Z,4.80
2022-11-26T04:55:52.633Z,4.90
2022-11-26T04:58:20.840Z,4.90
2022-11-26T05:00:51.080Z,4.90
2022-11-26T05:03:19.297Z,4.90
2022-11-26T05:05:47.154Z,5.00
2022-11-26T05:08:14.686Z,5.00
2022-11-26T05:10:42.059Z,5.00
2022-11-26T05:13:09.474Z,5.10
2022-11-26T05:15:36.862Z,5.00
2022-11-26T05:18:04.323Z,5.00
2022-11-26T05:20:31.614Z,5.00
2022-11-26T05:22:58.987Z,5.00
2022-11-26T05:25:26.457Z,5.00
2022-11-26T05:27:53.767Z,4.90
2022-11-26T05:30:21.174Z,4.90
2022-11-26T05:32:48.484Z,4.90
2022-11-26T05:35:15.854Z,4.90
2022-11-26T05:37:43.174Z,4.90
2022-11-26T05:40:11.348Z,4.90
2022-11-26T05:42:39.123Z,4.90
2022-11-26T05:45:07.345Z,4.90
2022-11-26T05:47:34.798Z,4.90
2022-11-26T05:50:02.359Z,5.00
2022-11-26T05:52:29.711Z,4.90
2022-11-26T05:55:03.218Z,4.90
2022-11-26T05:57:30.522Z,4.90
2022-11-26T05:59:57.823Z,4.90
2022-11-26T06:02:25.269Z,4.90
2022-11-26T06:04:52.799Z,4.90
2022-11-26T06:07:20.173Z,4.80
2022-11-26T06:09:47.508Z,4.80
2022-11-26T06:12:14.891Z,4.80
2022-11-26T06:14:43.498Z,4.80
2022-11-26T06:17:11.931Z,4.90
2022-11-26T06:19:39.503Z,4.90
2022-11-26T06:22:07.009Z,4.90
2022-11-26T06:24:34.648Z,4.90
2022-11-26T06:27:02.138Z,4.90
2022-11-26T06:29:29.449Z,4.80
2022-11-26T06:31:56.837Z,4.80
2022-11-26T06:34:24.348Z,4.80
2022-11-26T06:36:51.732Z,4.80
2022-11-26T06:39:21.440Z,4.80
2022-11-26T06:41:48.811Z,4.80
2022-11-26T06:44:16.136Z,4.80
2022-11-26T06:46:43.654Z,4.80
2022-11-26T06:49:11.145Z,4.80
2022-11-26T06:51:38.608Z,4.80
2022-11-26T06:54:06.125Z,4.80
2022-11-26T06:56:35.596Z,4.80
2022-11-26T06:59:02.928Z,4.80
2022-11-26T07:01:30.612Z,4.80
2022-11-26T07:03:58.017Z,4.80
2022-11-26T07:06:27.833Z,4.80
2022-11-26T07:08:57.480Z,4.80
2022-11-26T07:11:25.744Z,4.80
2022-11-26T07:13:53.936Z,4.90
2022-11-26T07:16:21.804Z,4.90
2022-11-26T07:19:00.902Z,4.90
2022-11-26T07:21:30.341Z,4.90
2022-11-26T07:23:58.513Z,4.90
2022-11-26T07:26:25.848Z,4.90
2022-11-26T07:28:53.680Z,4.90
2022-11-26T07:31:22.913Z,4.90
2022-11-26T07:33:50.973Z,5.00
2022-11-26T07:36:24.568Z,4.90
2022-11-26T07:38:55.229Z,4.90
2022-11-26T07:41:23.461Z,4.90
2022-11-26T07:43:51.564Z,4.90
2022-11-26T07:46:21.829Z,4.90
2022-11-26T07:48:49.971Z,4.80
2022-11-26T07:51:23.478Z,4.90
2022-11-26T07:53:51.557Z,4.80
2022-11-26T07:56:19.528Z,4.80
2022-11-26T07:58:46.861Z,4.80
2022-11-26T08:01:19.908Z,4.80
2022-11-26T08:03:49.407Z,4.80
2022-11-26T08:06:19.186Z,4.80
2022-11-26T08:08:46.871Z,4.80
2022-11-26T08:11:17.555Z,4.80
2022-11-26T08:13:45.826Z,4.90
2022-11-26T08:16:14.181Z,4.80
2022-11-26T08:18:42.118Z,4.80
2022-11-26T08:21:09.808Z,4.80
2022-11-26T08:23:37.342Z,4.80
2022-11-26T08:26:29.165Z,4.90
2022-11-26T08:29:00.771Z,4.90
2022-11-26T08:31:28.727Z,5.00
2022-11-26T08:33:58.003Z,5.00
2022-11-26T08:36:29.982Z,5.10
2022-11-26T08:38:58.930Z,5.20
2022-11-26T08:41:26.535Z,5.30
2022-11-26T08:44:09.204Z,5.30
2022-11-26T08:46:37.590Z,5.40
2022-11-26T08:49:05.687Z,5.40
2022-11-26T08:51:33.628Z,5.40
2022-11-26T08:54:33.356Z,5.40
2022-11-26T08:57:00.663Z,5.40
2022-11-26T08:59:28.019Z,5.40
2022-11-26T09:01:55.357Z,5.40
2022-11-26T09:04:22.726Z,5.40
2022-11-26T09:06:51.878Z,5.40
2022-11-26T09:09:19.884Z,5.40
2022-11-26T09:11:56.227Z,5.40
2022-11-26T09:14:25.332Z,5.40
2022-11-26T09:16:57.493Z,5.40
2022-11-26T09:19:25.380Z,5.40
2022-11-26T09:21:52.799Z,5.40
2022-11-26T09:24:21.360Z,5.40
2022-11-26T09:26:49.645Z,5.50
2022-11-26T09:29:20.428Z,5.50
2022-11-26T09:32:22.028Z,5.50
2022-11-26T09:34:37.255Z,5.50
2022-11-26T09:37:04.873Z,5.50
2022-11-26T09:39:32.168Z,5.50
2022-11-26T09:42:11.668Z,5.50
2022-11-26T09:44:57.120Z,5.50
2022-11-26T09:47:28.267Z,5.50
2022-11-26T09:50:00.103Z,5.40
2022-11-26T09:52:33.634Z,5.40
2022-11-26T09:55:14.057Z,5.50
2022-11-26T09:57:44.614Z,5.40
2022-11-26T10:00:34.472Z,5.40
2022-11-26T10:03:01.934Z,5.40
2022-11-26T10:05:41.128Z,5.40
2022-11-26T10:08:35.041Z,5.50
2022-11-26T10:11:09.528Z,5.60
2022-11-26T10:14:04.257Z,5.70
2022-11-26T10:16:49.689Z,5.70
2022-11-26T10:19:58.242Z,5.80
2022-11-26T10:22:57.737Z,5.80
2022-11-26T10:25:29.420Z,5.90
2022-11-26T10:27:58.216Z,6.10
2022-11-26T10:30:28.508Z,6.20
2022-11-26T10:32:59.988Z,6.20
2022-11-26T10:35:28.944Z,6.30
2022-11-26T10:37:57.322Z,6.30
2022-11-26T10:40:27.477Z,6.20
2022-11-26T10:43:17.275Z,6.30
2022-11-26T10:45:57.266Z,6.40
2022-11-26T10:48:32.878Z,6.40
2022-11-26T10:51:06.301Z,6.40
2022-11-26T10:54:07.503Z,6.40
2022-11-26T10:56:46.301Z,6.40
2022-11-26T10:59:22.902Z,6.40
2022-11-26T11:01:53.040Z,6.40
2022-11-26T11:04:31.676Z,6.40
2022-11-26T11:06:59.514Z,6.50
2022-11-26T11:09:31.699Z,6.70
2022-11-26T11:12:13.378Z,6.80
2022-11-26T11:14:43.339Z,6.80
2022-11-26T11:17:36.302Z,6.90
2022-11-26T11:20:31.926Z,7.10
2022-11-26T11:23:10.476Z,7.10
2022-11-26T11:25:47.975Z,7.10
2022-11-26T11:28:30.439Z,6.90
2022-11-26T11:31:19.674Z,6.80
2022-11-26T11:33:47.942Z,6.70
2022-11-26T11:36:18.162Z,6.50
2022-11-26T11:39:04.479Z,6.40
2022-11-26T11:41:45.075Z,6.30
2022-11-26T11:44:22.979Z,6.10
2022-11-26T11:47:22.483Z,6.10
2022-11-26T11:50:04.947Z,6.00
2022-11-26T11:53:09.183Z,6.00
2022-11-26T11:55:36.605Z,6.00
2022-11-26T11:58:35.700Z,6.00
2022-11-26T12:01:40.776Z,5.90
2022-11-26T12:04:19.938Z,5.80
2022-11-26T12:07:00.118Z,5.80
2022-11-26T12:09:39.484Z,5.80
2022-11-26T12:12:48.489Z,5.80
2022-11-26T12:15:21.380Z,5.70
2022-11-26T12:18:17.840Z,5.70
2022-11-26T12:20:49.337Z,5.80
2022-11-26T12:23:21.188Z,5.80
2022-11-26T12:26:06.134Z,5.90
2022-11-26T12:28:51.793Z,6.30
2022-11-26T12:31:51.154Z,6.90
2022-11-26T12:34:39.677Z,6.90
2022-11-26T12:37:31.211Z,7.00
2022-11-26T12:40:17.016Z,6.80
2022-11-26T12:42:54.949Z,7.00
2022-11-26T12:45:48.550Z,7.30
2022-11-26T12:48:33.851Z,7.40
2022-11-26T12:51:16.056Z,7.30
2022-11-26T12:54:14.557Z,7.10
2022-11-26T12:57:19.844Z,7.10
2022-11-26T12:59:56.473Z,6.90
2022-11-26T13:02:26.312Z,6.80
2022-11-26T13:04:54.954Z,6.70
2022-11-26T13:07:34.455Z,6.70
2022-11-26T13:10:38.563Z,6.60
2022-11-26T13:13:39.798Z,6.60
2022-11-26T13:16:47.117Z,6.50
2022-11-26T13:19:35.995Z,6.50
2022-11-26T13:22:06.361Z,6.50
2022-11-26T13:25:00.761Z,6.40
2022-11-26T13:27:55.446Z,6.40
2022-11-26T13:31:00.377Z,6.40
2022-11-26T13:34:18.532Z,6.40
2022-11-26T13:36:57.421Z,6.40
2022-11-26T13:39:54.602Z,6.40
2022-11-26T13:42:30.973Z,6.40
2022-11-26T13:45:37.745Z,6.40
2022-11-26T13:48:27.574Z,6.30
2022-11-26T13:51:04.422Z,6.30
2022-11-26T13:53:40.369Z,6.40
2022-11-26T13:56:10.707Z,6.40
2022-11-26T13:59:01.521Z,6.50
2022-11-26T14:01:29.004Z,6.60
2022-11-26T14:03:57.521Z,6.60
2022-11-26T14:06:25.057Z,6.40
2022-11-26T14:08:53.852Z,6.30
2022-11-26T14:11:40.078Z,6.30
2022-11-26T14:14:31.302Z,6.30
2022-11-26T14:17:02.424Z,6.10
2022-11-26T14:19:42.311Z,6.00
2022-11-26T14:22:21.583Z,5.90
2022-11-26T14:25:57.335Z,5.80
2022-11-26T14:28:24.731Z,5.80
2022-11-26T14:30:52.035Z,5.70
2022-11-26T14:33:27.250Z,5.60
2022-11-26T14:35:56.453Z,5.50
2022-11-26T14:38:31.455Z,5.40
2022-11-26T14:41:00.583Z,5.30
2022-11-26T14:43:29.207Z,5.30
2022-11-26T14:46:17.240Z,5.30
2022-11-26T14:48:46.973Z,5.20
2022-11-26T14:51:22.715Z,5.10
2022-11-26T14:53:50.833Z,4.80
2022-11-26T14:56:25.981Z,4.60
2022-11-26T14:59:00.523Z,4.40
2022-11-26T15:01:29.168Z,4.30
2022-11-26T15:04:05.324Z,4.30
2022-11-26T15:06:38.371Z,4.20
2022-11-26T15:09:16.692Z,4.20
2022-11-26T15:12:10.788Z,4.10
2022-11-26T15:14:44.364Z,4.10
2022-11-26T15:17:15.624Z,4.10
2022-11-26T15:19:43.740Z,4.10
2022-11-26T15:22:44.376Z,4.10
2022-11-26T15:26:23.368Z,4.10
2022-11-26T15:28:51.068Z,4.00
2022-11-26T15:31:18.392Z,3.90
2022-11-26T15:33:47.052Z,3.50
2022-11-26T15:36:17.604Z,3.10
2022-11-26T15:41:50.951Z,2.60
2022-11-26T15:44:25.064Z,2.50
2022-11-26T15:46:55.437Z,2.60
2022-11-26T15:49:33.706Z,2.60
2022-11-26T15:52:07.935Z,2.80
2022-11-26T15:55:24.950Z,2.80
2022-11-26T15:57:52.749Z,2.90
2022-11-26T16:00:27.491Z,3.00
2022-11-26T16:02:54.889Z,3.00
2022-11-26T16:05:40.540Z,2.90
2022-11-26T16:08:30.678Z,2.50
2022-11-26T16:11:05.205Z,2.30
2022-11-26T16:13:34.577Z,2.40
2022-11-26T16:16:17.407Z,2.40
2022-11-26T16:19:00.858Z,2.20
2022-11-26T16:21:33.954Z,2.10
2022-11-26T16:24:28.373Z,2.20
2022-11-26T16:27:26.478Z,2.30
2022-11-26T16:29:53.774Z,2.30
2022-11-26T16:32:21.367Z,2.20
2022-11-26T16:34:49.029Z,2.10
2022-11-26T16:37:24.011Z,2.00
2022-11-26T16:39:59.238Z,2.00
2022-11-26T16:42:26.563Z,1.90
2022-11-26T16:44:53.976Z,2.00
2022-11-26T16:47:26.095Z,2.00
2022-11-26T16:49:56.292Z,1.80
2022-11-26T16:52:23.729Z,1.60
2022-11-26T16:54:51.534Z,1.70
2022-11-26T16:57:21.308Z,1.90
2022-11-26T16:59:55.786Z,1.90
2022-11-26T17:02:24.014Z,1.70
2022-11-26T17:04:51.551Z,1.30
2022-11-26T17:07:21.325Z,1.20
2022-11-26T17:09:48.827Z,1.20
2022-11-26T17:12:22.212Z,1.30
2022-11-26T17:14:50.455Z,1.30
2022-11-26T17:17:28.093Z,1.40
2022-11-26T17:19:56.783Z,1.30
2022-11-26T17:22:24.939Z,1.30
2022-11-26T17:24:58.923Z,1.20
2022-11-26T17:27:26.664Z,1.10
2022-11-26T17:29:54.015Z,1.00
2022-11-26T17:32:21.392Z,1.00
2022-11-26T17:34:49.027Z,1.10
2022-11-26T17:37:27.367Z,1.10
2022-11-26T17:39:55.991Z,1.20
2022-11-26T17:42:25.519Z,1.30
2022-11-26T17:44:54.880Z,1.20
2022-11-26T17:47:25.064Z,1.00
2022-11-26T17:49:53.803Z,0.90
2022-11-26T17:52:22.757Z,1.00
2022-11-26T17:54:54.048Z,1.10
2022-11-26T17:57:22.842Z,1.10
2022-11-26T17:59:50.276Z,1.20
2022-11-26T18:02:17.659Z,1.20
2022-11-26T18:04:45.564Z,1.10
2022-11-26T18:07:19.792Z,1.10
2022-11-26T18:09:47.392Z,1.00
2022-11-26T18:12:26.388Z,0.80
2022-11-26T18:14:55.325Z,0.60
2022-11-26T18:17:23.796Z,0.50
2022-11-26T18:19:51.165Z,0.50
2022-11-26T18:22:24.049Z,0.60
2022-11-26T18:24:57.181Z,0.60
2022-11-26T18:27:26.978Z,0.60
2022-11-26T18:29:54.552Z,0.50
2022-11-26T18:32:22.333Z,0.50
2022-11-26T18:34:53.345Z,0.60
2022-11-26T18:37:20.712Z,0.70
2022-11-26T18:39:47.989Z,0.90
2022-11-26T18:42:36.064Z,1.10
2022-11-26T18:45:02.830Z,1.00
2022-11-26T18:47:30.514Z,0.70
2022-11-26T18:50:00.077Z,0.30
2022-11-26T18:52:27.425Z,0.20
2022-11-26T18:54:58.118Z,0.20
2022-11-26T18:57:25.602Z,0.20
2022-11-26T18:59:52.923Z,0.30
2022-11-26T19:02:20.324Z,0.40
2022-11-26T19:04:47.891Z,0.30
2022-11-26T19:07:15.580Z,0.30
2022-11-26T19:09:43.320Z,0.30
2022-11-26T19:12:12.972Z,0.40
2022-11-26T19:14:40.314Z,0.50
2022-11-26T19:17:07.796Z,0.50
2022-11-26T19:19:37.265Z,0.50
2022-11-26T19:22:04.750Z,0.40
2022-11-26T19:24:36.130Z,0.40
2022-11-26T19:27:03.515Z,0.30
2022-11-26T19:29:30.807Z,0.30
2022-11-26T19:31:58.195Z,0.20
2022-11-26T19:34:25.546Z,0.20
2022-11-26T19:36:57.570Z,0.20
2022-11-26T19:39:24.991Z,0.30
2022-11-26T19:41:52.418Z,0.40
2022-11-26T19:44:19.801Z,0.40
2022-11-26T19:46:48.252Z,0.10
2022-11-26T19:49:15.743Z,0.00
2022-11-26T19:51:43.210Z,0.10
2022-11-26T19:54:10.625Z,0.10
2022-11-26T19:56:38.371Z,0.20
2022-11-26T19:59:06.102Z,0.30
2022-11-26T20:01:34.728Z,0.30
2022-11-26T20:04:05.962Z,0.30
2022-11-26T20:06:34.724Z,0.30
2022-11-26T20:09:04.805Z,0.40
2022-11-26T20:11:35.190Z,0.30
2022-11-26T20:14:03.349Z,0.40
2022-11-26T20:16:32.460Z,0.30
2022-11-26T20:19:01.377Z,0.20
2022-11-26T20:21:33.699Z,0.00
2022-11-26T20:24:08.067Z,-0.30
2022-11-26T20:26:37.869Z,-0.40
2022-11-26T20:29:10.380Z,-0.50
2022-11-26T20:31:45.689Z,-0.50
2022-11-26T20:34:25.969Z,-0.40
2022-11-26T20:36:53.340Z,-0.30
2022-11-26T20:39:22.424Z,-0.20
2022-11-26T20:41:50.217Z,-0.30
2022-11-26T20:44:17.520Z,-0.40
2022-11-26T20:46:44.866Z,-0.40
2022-11-26T20:49:12.243Z,-0.50
2022-11-26T20:51:39.652Z,-0.60
2022-11-26T20:54:13.208Z,-0.60
2022-11-26T20:56:40.555Z,-0.60
2022-11-26T20:59:09.809Z,-0.60
2022-11-26T21:01:37.829Z,-0.60
2022-11-26T21:04:06.719Z,-0.50
2022-11-26T21:06:35.113Z,-0.50
2022-11-26T21:09:04.850Z,-0.30
2022-11-26T21:11:32.194Z,-0.30
2022-11-26T21:14:01.368Z,-0.30
2022-11-26T21:16:30.293Z,-0.20
2022-11-26T21:18:58.384Z,-0.20
2022-11-26T21:21:27.427Z,-0.30
2022-11-26T21:23:56.605Z,-0.30
2022-11-26T21:26:25.279Z,-0.30
2022-11-26T21:28:54.437Z,-0.40
2022-11-26T21:31:22.967Z,-0.50
2022-11-26T21:33:56.003Z,-0.40
2022-11-26T21:36:24.581Z,-0.50
2022-11-26T21:38:52.075Z,-0.40
2022-11-26T21:41:20.589Z,-0.40
2022-11-26T21:43:48.849Z,-0.30
2022-11-26T21:46:27.027Z,-0.20
2022-11-26T21:48:55.853Z,-0.10
2022-11-26T21:51:25.310Z,-0.10
2022-11-26T21:54:10.817Z,-0.10
2022-11-26T21:56:38.162Z,-0.20
2022-11-26T21:59:05.543Z,-0.20
2022-11-26T22:01:37.740Z,-0.20
2022-11-26T22:04:08.381Z,-0.10
2022-11-26T22:06:36.358Z,-0.20
2022-11-26T22:09:05.209Z,-0.10
2022-11-26T22:11:35.863Z,-0.10
2022-11-26T22:14:04.443Z,-0.10
2022-11-26T22:16:32.107Z,-0.10
2022-11-26T22:19:01.196Z,-0.10
2022-11-26T22:21:31.176Z,-0.20
2022-11-26T22:24:03.832Z,-0.30
2022-11-26T22:26:31.986Z,-0.40
2022-11-26T22:28:59.890Z,-0.40
2022-11-26T22:31:30.032Z,-0.50
2022-11-26T22:34:00.383Z,-0.50
2022-11-26T22:36:28.258Z,-0.60
2022-11-26T22:38:56.066Z,-0.60
2022-11-26T22:41:23.422Z,-0.60
2022-11-26T22:43:51.030Z,-0.60
2022-11-26T22:46:21.225Z,-0.60
2022-11-26T22:48:59.439Z,-0.50
2022-11-26T22:51:29.379Z,-0.40
2022-11-26T22:54:29.760Z,-0.30
2022-11-26T22:57:05.125Z,-0.40
2022-11-26T22:59:36.136Z,-0.40
2022-11-26T23:02:06.106Z,-0.40
2022-11-26T23:05:20.723Z,-0.40
2022-11-26T23:07:55.477Z,-0.40
2022-11-26T23:10:22.812Z,-0.10
2022-11-26T23:12:50.116Z,0.10
2022-11-26T23:15:17.388Z,0.20
2022-11-26T23:17:44.724Z,0.20
2022-11-26T23:20:12.900Z,0.10
2022-11-26T23:22:40.232Z,-0.10
2022-11-26T23:25:14.408Z,-0.30
2022-11-26T23:27:41.797Z,-0.40
2022-11-26T23:30:09.708Z,-0.50
2022-11-26T23:32:37.030Z,-0.50
2022-11-26T23:35:04.555Z,-0.60
2022-11-26T23:37:32.104Z,-0.60
2022-11-26T23:39:59.419Z,-0.60
2022-11-26T23:42:26.836Z,-0.70
2022-11-26T23:44:54.160Z,-0.70
2022-11-26T23:47:21.488Z,-0.70
2022-11-26T23:49:48.830Z,-0.60
2022-11-26T23:52:16.231Z,-0.60
2022-11-26T23:54:43.642Z,-0.50
2022-11-26T23:57:14.967Z,-0.50
2022-11-26T23:59:42.693Z,-0.40
